Flight Track Log - Related Links

Times and Time Zones

All times are in EDT time to prevent confusion due to time zone crossing. See the EJA929 flight status page for this flight to view local times or setup timezone preferences in your user account.

Time Position Orientation Groundspeed Altitude Reporting Facility
EDT Latitude Longitude Course Direction KTS MPH feet Rate Location/Type
Sun 11:19:29 AM 34.6161 -112.4478 73° East 201 231 6,700  Level Albuquerque Center
Sun 11:20:31 AM 34.5775 -112.3808 125° Southeast 270 311 8,700 2,613 Climbing Albuquerque Center
Sun 11:21:33 AM 34.6186 -112.2836 63° Northeast 313 360 12,100 3,339 Climbing Albuquerque Center
Sun 11:22:35 AM 34.6661 -112.1897 58° Northeast 322 371 15,600 2,146 Climbing Albuquerque Center
Sun 11:23:36 AM 34.7186 -112.0847 59° Northeast 345 397 16,500 829 Climbing Albuquerque Center
Sun 11:24:00 AM 34.8907 -111.4539 73° East  Level FlightAware Approximate
Sun 11:24:38 AM 34.7700 -111.9717 61° Northeast 394 453 17,300  Level Albuquerque Center
Sun 11:25:40 AM 34.8122 -111.8133 72° East 414 476 18,500 1,016 Climbing Albuquerque Center
Sun 11:26:42 AM 34.8439 -111.6894 73° East 419 482 19,400 919 Climbing Albuquerque Center
Sun 11:27:44 AM 34.8769 -111.5497 74° East 425 489 20,400 1,016 Climbing Albuquerque Center
Sun 11:28:46 AM 34.9194 -111.3803 73° East 433 498 21,500 1,024 Climbing Albuquerque Center
Sun 11:29:47 AM 34.9547 -111.2356 73° East 440 506 22,500 780 Climbing Albuquerque Center
Sun 11:30:49 AM 34.9897 -111.0906 74° East 444 511 23,100 774 Climbing Albuquerque Center
Sun 11:31:51 AM 35.0261 -110.9406 73° East 455 524 24,100 1,016 Climbing Albuquerque Center
Sun 11:32:53 AM 35.0667 -110.7717 74° East 459 528 25,200 1,016 Climbing Albuquerque Center
Sun 11:33:55 AM 35.0986 -110.6267 75° East 461 531 26,200 927 Climbing Albuquerque Center
Sun 11:34:56 AM 35.1322 -110.4800 74° East 466 536 27,100 1,024 Climbing Albuquerque Center
Sun 11:35:58 AM 35.1714 -110.3086 74° East 469 540 28,300 1,016 Climbing Albuquerque Center
Sun 11:37:00 AM 35.2039 -110.1594 75° East 472 543 29,200 968 Climbing Albuquerque Center
Sun 11:38:02 AM 35.2425 -109.9825 75° East 479 551 30,300 1,024 Climbing Albuquerque Center
Sun 11:39:03 AM 35.2764 -109.8300 75° East 484 557 31,300 1,024 Climbing Albuquerque Center
Sun 11:40:05 AM 35.3128 -109.6472 76° East 492 566 32,400 1,016 Climbing Albuquerque Center
Sun 11:41:07 AM 35.3467 -109.4917 75° East 494 568 33,400 1,016 Climbing Albuquerque Center
Sun 11:42:09 AM 35.3856 -109.3072 75° East 500 575 34,500 968 Climbing Albuquerque Center
Sun 11:43:11 AM 35.4192 -109.1469 76° East 505 581 35,400 976 Climbing Albuquerque Center
Sun 11:44:12 AM 35.4583 -108.9606 75° East 508 585 36,500 1,024 Climbing Albuquerque Center
Sun 11:45:14 AM 35.4950 -108.7992 74° East 512 589 37,500 968 Climbing Albuquerque Center
Sun 11:46:16 AM 35.5336 -108.6367 74° East 518 596 38,500 1,016 Climbing Albuquerque Center
Sun 11:47:18 AM 35.5778 -108.4450 74° East 522 601 39,600 968 Climbing Albuquerque Center
Sun 11:48:20 AM 35.6156 -108.2803 74° East 525 604 40,500 683 Climbing Albuquerque Center
Sun 11:49:21 AM 35.6600 -108.0881 74° East 526 605 41,000 244 Climbing Albuquerque Center
Sun 11:50:23 AM 35.6969 -107.9172 75° East 534 615 41,000  Level Albuquerque Center
Sun 11:51:25 AM 35.7439 -107.7142 74° East 547 629 41,000  Level Albuquerque Center
Sun 11:52:26 AM 35.7817 -107.5397 75° East 551 634 41,000  Level Albuquerque Center
Sun 11:53:28 AM 35.8283 -107.3353 74° East 554 638 41,000  Level Albuquerque Center
Sun 11:54:30 AM 35.8669 -107.1603 75° East 554 638 41,000  Level Albuquerque Center
Sun 11:55:31 AM 35.9108 -106.9558 75° East 552 635 41,000  Level Albuquerque Center
Sun 11:56:33 AM 35.9511 -106.7786 74° East 556 640 41,000  Level Albuquerque Center
Sun 11:57:35 AM 35.9889 -106.6033 75° East 554 638 41,000  Level Albuquerque Center
Sun 11:58:37 AM 36.0278 -106.4197 75° East 556 640 41,000  Level Albuquerque Center
Sun 11:59:38 AM 36.0669 -106.2333 75° East 556 640 41,000  Level Albuquerque Center
Sun 12:00:40 PM 36.1128 -106.0103 76° East 554 638 41,000  Level Albuquerque Center
Sun 12:01:42 PM 36.1522 -105.8253 75° East 553 636 41,000  Level Albuquerque Center
Sun 12:02:43 PM 36.1894 -105.6397 76° East 552 635 41,000  Level Albuquerque Center
Sun 12:03:45 PM 36.2261 -105.4625 76° East 549 632 41,000  Level Albuquerque Center
Sun 12:04:47 PM 36.2642 -105.2750 76° East 552 635 41,000  Level Albuquerque Center
Sun 12:05:49 PM 36.3003 -105.0897 76° East 549 632 41,000  Level Albuquerque Center
Sun 12:06:51 PM 36.3372 -104.9042 76° East 548 631 41,000  Level Albuquerque Center
Sun 12:07:52 PM 36.3736 -104.7175 76° East 551 634 41,000  Level Albuquerque Center
Sun 12:08:54 PM 36.4164 -104.4997 76° East 551 634 41,000  Level Albuquerque Center
Sun 12:09:56 PM 36.4528 -104.3131 76° East 550 633 41,000  Level Albuquerque Center
Sun 12:10:58 PM 36.4892 -104.1256 76° East 551 634 41,000  Level Albuquerque Center
Sun 12:11:59 PM 36.5247 -103.9372 77° East 553 636 41,000  Level Albuquerque Center
Sun 12:13:01 PM 36.5603 -103.7483 77° East 553 636 41,000  Level Albuquerque Center
Sun 12:14:03 PM 36.5964 -103.5572 77° East 559 643 41,000  Level Albuquerque Center
Sun 12:15:05 PM 36.6306 -103.3683 77° East 557 641 41,000  Level Albuquerque Center
Sun 12:16:06 PM 36.6686 -103.1594 77° East 559 643 41,000  Level Albuquerque Center
Sun 12:17:08 PM 36.7003 -102.9811 77° East 555 639 41,000  Level Albuquerque Center
Sun 12:18:10 PM 36.7386 -102.7706 77° East 557 641 41,000  Level Albuquerque Center
Sun 12:19:12 PM 36.7697 -102.5925 78° East 554 638 41,000  Level Albuquerque Center
Sun 12:20:14 PM 36.8047 -102.3933 78° East 554 638 41,000  Level Albuquerque Center
Sun 12:21:16 PM 36.8375 -102.2039 78° East 557 641 41,000  Level Albuquerque Center
Sun 12:22:18 PM 36.8739 -101.9972 78° East 555 639 41,000  Level Albuquerque Center
Sun 12:23:19 PM 36.9047 -101.8158 78° East 557 641 41,000  Level Albuquerque Center
Sun 12:24:21 PM 36.9392 -101.6067 78° East 553 636 41,000  Level Albuquerque Center
Sun 12:25:23 PM 36.9692 -101.4278 78° East 553 636 41,000  Level Albuquerque Center
Sun 12:26:37 PM 37.0083 -101.1869 78° East 554 638 41,000  Level Kansas City Center
Sun 12:27:39 PM 37.0372 -101.0072 79° East 554 638 41,000  Level Kansas City Center
Sun 12:28:41 PM 37.0803 -100.8025 75° East 549 632 41,000  Level Kansas City Center
Sun 12:29:43 PM 37.1192 -100.6281 74° East 548 631 41,000  Level Kansas City Center
Sun 12:30:45 PM 37.1636 -100.4272 74° East 542 624 41,000  Level Kansas City Center
Sun 12:31:47 PM 37.2008 -100.2550 75° East 540 621 41,000  Level Kansas City Center
Sun 12:32:49 PM 37.2450 -100.0519 75° East 541 623 41,000  Level Kansas City Center
Sun 12:33:51 PM 37.2817 -99.8761 75° East 544 626 41,000  Level Kansas City Center
Sun 12:34:53 PM 37.3261 -99.6719 75° East 545 627 41,000  Level Kansas City Center
Sun 12:35:55 PM 37.3619 -99.4961 76° East 545 627 41,000  Level Kansas City Center
Sun 12:36:57 PM 37.4042 -99.3061 74° East 545 627 41,000  Level Kansas City Center
Sun 12:37:59 PM 37.4422 -99.1219 75° East 545 627 41,000  Level Kansas City Center
Sun 12:39:01 PM 37.4781 -98.9381 76° East 543 625 41,000  Level Kansas City Center
Sun 12:40:03 PM 37.5147 -98.7533 76° East 544 626 41,000  Level Kansas City Center
Sun 12:41:05 PM 37.5583 -98.5319 76° East 545 627 41,000  Level Kansas City Center
Sun 12:42:07 PM 37.5964 -98.3494 75° East 543 625 41,000  Level Kansas City Center
Sun 12:43:09 PM 37.6333 -98.1628 76° East 551 634 41,000  Level Kansas City Center
Sun 12:44:11 PM 37.6703 -97.9597 77° East 543 625 41,000  Level Kansas City Center
Sun 12:45:13 PM 37.7061 -97.7703 76° East 550 633 41,000  Level Kansas City Center
Sun 12:46:15 PM 37.7425 -97.5817 76° East 552 635 41,000  Level Kansas City Center
Sun 12:47:18 PM 37.7803 -97.3861 76° East 552 635 41,000  Level Kansas City Center
Sun 12:48:20 PM 37.8144 -97.2011 77° East 545 627 41,000  Level Kansas City Center
Sun 12:49:22 PM 37.8481 -97.0153 77° East 544 626 41,000  Level Kansas City Center
Sun 12:50:24 PM 37.8811 -96.8289 77° East 543 625 41,000  Level Kansas City Center
Sun 12:51:26 PM 37.9200 -96.6044 78° East 544 626 41,000  Level Kansas City Center
Sun 12:52:28 PM 37.9522 -96.4169 78° East 546 628 41,000  Level Kansas City Center
Sun 12:53:30 PM 37.9833 -96.2281 78° East 547 629 41,000  Level Kansas City Center
Sun 12:54:32 PM 38.0150 -96.0325 78° East 539 620 41,000  Level Kansas City Center
Sun 12:55:34 PM 38.0444 -95.8511 78° East 548 631 41,000  Level Kansas City Center
Sun 12:56:36 PM 38.0814 -95.6397 77° East 551 634 41,000  Level Kansas City Center
Sun 12:57:38 PM 38.1133 -95.4586 77° East 551 634 41,000  Level Kansas City Center
Sun 12:58:40 PM 38.1492 -95.2467 78° East 552 635 41,000  Level Kansas City Center
Sun 12:59:42 PM 38.1794 -95.0653 78° East 550 633 41,000  Level Kansas City Center
Sun 01:00:44 PM 38.2136 -94.8536 78° East 549 632 41,000  Level Kansas City Center
Sun 01:01:46 PM 38.2414 -94.6711 79° East 550 633 41,000  Level Kansas City Center
Sun 01:02:48 PM 38.2753 -94.4581 78° East 552 635 41,000  Level Kansas City Center
Sun 01:03:50 PM 38.3053 -94.2750 78° East 552 635 41,000 48 Level Kansas City Center
Sun 01:04:52 PM 38.3386 -94.0731 78° East 553 636 41,100  Climbing Kansas City Center
Sun 01:05:54 PM 38.3700 -93.8814 78° East 552 635 41,000 -48 Descending Kansas City Center
Sun 01:06:56 PM 38.3992 -93.6894 79° East 551 634 41,000  Level Kansas City Center
Sun 01:07:58 PM 38.4358 -93.4581 78° East 552 635 41,000  Level Kansas City Center
Sun 01:09:00 PM 38.4658 -93.2658 79° East 550 633 41,000  Level Kansas City Center
Sun 01:10:02 PM 38.4961 -93.0711 79° East 554 638 41,000  Level Kansas City Center
Sun 01:11:04 PM 38.5272 -92.8753 78° East 556 640 41,000  Level Kansas City Center
Sun 01:12:06 PM 38.5550 -92.6808 80° East 554 638 41,000  Level Kansas City Center
Sun 01:13:09 PM 38.5833 -92.4869 79° East 553 636 41,000  Level Kansas City Center
Sun 01:14:11 PM 38.6111 -92.2889 80° East 556 640 41,000  Level Kansas City Center
Sun 01:15:13 PM 38.6394 -92.0922 79° East 557 641 41,000  Level Kansas City Center
Sun 01:16:15 PM 38.6672 -91.8961 80° East 557 641 41,000  Level Kansas City Center
Sun 01:17:17 PM 38.7000 -91.6617 80° East 555 639 41,000  Level Kansas City Center
Sun 01:18:19 PM 38.7231 -91.4967 80° East 556 640 41,000  Level Kansas City Center
Sun 01:19:21 PM 38.7550 -91.2628 80° East 556 640 41,000  Level Kansas City Center
Sun 01:20:23 PM 38.7806 -91.0667 80° East 557 641 41,000  Level Kansas City Center
Sun 01:21:25 PM 38.8089 -90.8700 79° East 559 643 41,000  Level Kansas City Center
Sun 01:22:27 PM 38.8350 -90.6794 80° East 558 642 41,000  Level Kansas City Center
Sun 01:23:29 PM 38.8625 -90.4811 80° East 560 644 41,000  Level Kansas City Center
Sun 01:24:31 PM 38.9097 -90.2539 75° East 554 638 41,000  Level Kansas City Center
Sun 01:25:33 PM 38.9611 -90.0861 68° East 571 657 41,000  Level Kansas City Center
Sun 01:26:35 PM 39.0156 -89.8633 72° East 552 635 41,000  Level Kansas City Center
Sun 01:27:37 PM 39.0617 -89.6750 72° East 552 635 41,000  Level Kansas City Center
Sun 01:28:39 PM 39.1075 -89.4867 73° East 551 634 41,000  Level Kansas City Center
Sun 01:29:41 PM 39.1556 -89.2836 73° East 552 635 41,000  Level Kansas City Center
Sun 01:30:43 PM 39.1975 -89.1092 73° East 551 634 41,000  Level Kansas City Center
Sun 01:31:45 PM 39.2425 -88.9231 73° East 547 629 41,000  Level Kansas City Center
Sun 01:32:47 PM 39.2897 -88.7367 72° East 548 631 41,000  Level Kansas City Center
Sun 01:33:49 PM 39.3392 -88.5214 73° East 554 638 41,000  Level Kansas City Center
Sun 01:34:34 PM 39.3708 -88.3700 75° East 555 639 41,000  Level Indianapolis Center
Sun 01:35:36 PM 39.4183 -88.1672 73° East 554 638 41,000  Level Indianapolis Center
Sun 01:36:55 PM 39.4711 -87.9425 73° East 557 641 41,000  Level Kansas City Center
Sun 01:37:40 PM 39.5053 -87.7833 74° East 558 642 41,000  Level Indianapolis Center
Sun 01:38:42 PM 39.5475 -87.5908 74° East 558 642 41,000  Level Indianapolis Center
Sun 01:39:44 PM 39.5914 -87.4000 73° East 555 639 41,000  Level Indianapolis Center
Sun 01:40:46 PM 39.6336 -87.2097 74° East 553 636 41,000  Level Indianapolis Center
Sun 01:41:48 PM 39.6833 -86.9789 74° East 554 638 41,000  Level Indianapolis Center
Sun 01:42:50 PM 39.7247 -86.7881 74° East 553 636 41,000  Level Indianapolis Center
Sun 01:43:52 PM 39.7664 -86.5956 74° East 553 636 41,000  Level Indianapolis Center
Sun 01:44:53 PM 39.8092 -86.3964 74° East 555 639 41,000  Level Indianapolis Center
Sun 01:45:55 PM 39.8494 -86.1997 75° East 558 642 41,000  Level Indianapolis Center
Sun 01:46:57 PM 39.8936 -85.9975 74° East 560 644 41,000  Level Indianapolis Center
Sun 01:47:59 PM 39.9347 -85.8031 75° East 557 641 41,000  Level Indianapolis Center
Sun 01:49:01 PM 39.9756 -85.6078 75° East 560 644 41,000  Level Indianapolis Center
Sun 01:50:03 PM 40.0236 -85.3722 75° East 561 646 41,000  Level Indianapolis Center
Sun 01:51:05 PM 40.0639 -85.1764 75° East 561 646 41,000  Level Indianapolis Center
Sun 01:52:07 PM 40.1028 -84.9797 75° East 561 646 41,000  Level Indianapolis Center
Sun 01:53:09 PM 40.1525 -84.7808 72° East 564 649 41,000  Level Indianapolis Center
Sun 01:54:11 PM 40.2111 -84.5894 68° East 563 648 41,000  Level Indianapolis Center
Sun 01:55:13 PM 40.2686 -84.3950 69° East 564 649 41,000  Level Indianapolis Center
Sun 01:56:15 PM 40.3250 -84.2033 69° East 560 644 41,000  Level Indianapolis Center
Sun 01:57:17 PM 40.3808 -84.0108 69° East 558 642 41,000  Level Indianapolis Center
Sun 01:58:19 PM 40.4453 -83.7836 69° East 560 644 41,000  Level Indianapolis Center
Sun 01:59:21 PM 40.5000 -83.5911 69° East 556 640 41,000  Level Indianapolis Center
Sun 02:00:23 PM 40.5547 -83.3958 70° East 559 643 41,000  Level Indianapolis Center
Sun 02:01:25 PM 40.6097 -83.1989 70° East 564 649 41,000  Level Indianapolis Center
Sun 02:02:27 PM 40.6642 -83.0075 69° East 561 646 41,000  Level Indianapolis Center
Sun 02:03:29 PM 40.7169 -82.8131 70° East 561 646 41,000  Level Indianapolis Center
Sun 02:04:30 PM 40.7700 -82.6200 70° East 559 643 41,000  Level Indianapolis Center
Sun 02:05:32 PM 40.8219 -82.4264 70° East 558 642 41,000  Level Indianapolis Center
Sun 02:06:34 PM 40.8422 -82.1925 83° East 552 635 41,000  Level Indianapolis Center
Sun 02:07:36 PM 40.8389 -81.9906 91° East 550 633 41,000  Level Indianapolis Center
Sun 02:08:38 PM 40.8356 -81.7903 91° East 548 631 41,000  Level Indianapolis Center
Sun 02:09:40 PM 40.8322 -81.5881 91° East 551 634 41,000  Level Indianapolis Center
Sun 02:10:42 PM 40.8294 -81.3878 91° East 548 631 41,000 -131 Level Indianapolis Center
Sun 02:11:57 PM 40.8225 -81.1128 92° East 555 639 40,700 -800 Descending Cleveland Center
Sun 02:12:57 PM 40.8214 -80.9122 90° East 550 633 39,200 -1,500 Descending Cleveland Center
Sun 02:13:57 PM 40.8175 -80.7147 91° East 550 633 37,700 -1,100 Descending Cleveland Center
Sun 02:14:57 PM 40.8092 -80.5117 93° East 555 639 37,000 -350 Descending Cleveland Center
Sun 02:15:57 PM 40.8069 -80.3333 91° East 550 633 37,000 -950 Level Cleveland Center
Sun 02:16:57 PM 40.8000 -80.1333 94° East 550 633 35,100 -2,050 Descending Cleveland Center
Sun 02:17:00 PM 40.7969 -80.1373 94° East  Level FlightAware Approximate
Sun 02:17:57 PM 40.7950 -79.9358 92° East 550 633 32,900  Level Cleveland Center
Sun 02:18:57 PM 40.7875 -79.7522 93° East 524 603 31,500 -1,450 Descending Cleveland Center
Sun 02:19:57 PM 40.7839 -79.5547 91° East 522 601 30,000 -1,450 Descending Cleveland Center
Sun 02:20:57 PM 40.7778 -79.3519 92° East 535 616 28,600 -1,400 Descending Cleveland Center
Sun 02:21:57 PM 40.7692 -79.1519 93° East 542 624 27,200 -1,400 Descending Cleveland Center
Sun 02:22:57 PM 40.7603 -78.9575 93° East 542 624 25,800 -1,100 Descending Cleveland Center
Sun 02:23:57 PM 40.7531 -78.7658 93° East 529 609 25,000 -251 Descending Cleveland Center
Sun 02:26:08 PM 40.7350 -78.3553 93° East 544 626 25,000  Level New York Center
Sun 02:27:07 PM 40.7250 -78.1514 94° East 532 612 25,000 -101 Level New York Center
Sun 02:28:07 PM 40.7158 -77.9642 94° East 521 600 24,800 -893 Descending New York Center
Sun 02:29:08 PM 40.7081 -77.7772 93° East 516 594 23,200 -1,537 Descending New York Center
Sun 02:30:08 PM 40.6978 -77.5981 94° East 505 581 21,700 -1,550 Descending New York Center
Sun 02:31:08 PM 40.6889 -77.4247 94° East 490 564 20,100 -1,537 Descending New York Center
Sun 02:32:09 PM 40.6778 -77.2511 95° East 482 555 18,600 -1,525 Descending New York Center
Sun 02:33:06 PM 40.6683 -77.0778 94° East 477 549 17,100 -1,311 Descending New York Center
Sun 02:34:08 PM 40.6133 -76.9361 117° Southeast 436 502 16,000 -1,091 Descending New York Center
Sun 02:35:07 PM 40.5667 -76.7897 113° Southeast 441 507 14,900 -1,576 Descending New York Center
Sun 02:36:06 PM 40.5703 -76.6344 88° East 426 490 12,900 -1,950 Descending New York Center
Sun 02:37:07 PM 40.5819 -76.4794 84° East 426 490 11,000 -942 Descending New York Center
Sun 02:38:07 PM 40.5925 -76.3439 84° East 394 453 11,000  Level New York Center
Sun 02:39:07 PM 40.6003 -76.2214 85° East 372 428 11,000 -350 Level New York Center
Sun 02:40:07 PM 40.6100 -76.1019 84° East 344 396 10,300 -1,008 Descending New York Center
Sun 02:41:06 PM 40.6172 -75.9847 85° East 299 344 9,000 -829 Descending New York Center
Sun 02:42:10 PM 40.6244 -75.8706 85° East 299 344 8,600 -1,000 Descending New York Center
Sun 02:43:06 PM 40.6264 -75.7722 88° East 299 344 7,000 -931 Descending New York Center
Sun 02:44:06 PM 40.6203 -75.6733 95° East 287 330 6,800 -885 Descending New York Center
Sun 02:45:08 PM 40.6222 -75.5750 88° East 276 318 5,200 -1,400 Descending New York Center
Sun 02:46:06 PM 40.6283 -75.4742 85° East 271 312 4,000 -610 Descending New York Center
Sun 02:47:06 PM 40.6236 -75.3808 94° East 266 306 4,000  Level New York Center
Sun 02:48:07 PM 40.6456 -75.3031 70° East 241 277 4,000  Level New York Center
Sun 02:49:07 PM 40.6914 -75.2431 45° Northeast 213 245 4,000  Level New York Center
Sun 02:50:08 PM 40.7392 -75.1942 38° Northeast 208 239 4,000 -403 Level New York Center
Sun 02:51:06 PM 40.7744 -75.1992 354° North 162 186 3,200 -814 Descending New York Center
Sun 02:52:06 PM 40.7658 -75.2589 259° West 91 105 2,400 -397 Descending New York Center
Sun 02:53:07 PM 40.7350 -75.3036 228° Southwest 98 113 2,400  Level New York Center

Login

Don't have an account? Register now (free) for customized features, flight alerts, and more!